Evansville, Indiana
Current Conditions -  °F | °C
As of 4:54 PM on Thursday 18 Dec 2014 (Local Time) from KEVV Reporting Station
Overcast Overcast  
Wind Chill: 34°   Ceiling: 4600
Heat Index: 34°   Visibility: 10mi
Dew Point: 25°   Wind: 3mph
Humidity: 70%   Direction: 350°N
Pressure: 30.25"   Gusts: NA
Location:  37.98°N, 87.56°W
Report Text: KEVV 182254Z 35003KT 10SM BKN046 OVC065 01/M04 A3025 RMK AO2 SLP248 T00111039
Loading
Personal Weather Stations






























Interactive Weather Map New forecast layout! Learn more

10-Day Weather Forecast

Advertisements
Track Severe Weather on mobile